Time;durP1;ratioP1;P1;durP2;ratioP2;P2;SDS_P1;SDS_P2;PMS_P1;PMS_P2;Temp;Humidity;BMP_temperature;BMP_pressure;BME280_temperature;BME280_humidity;BME280_pressure;Samples;Min_cycle;Max_cycle;Signal;HPM_P1;HPM_P2
2022/05/09 00:00:05;;;;;;;;;;;17.60;66.10;;;;;;5078434;28;19932;-78
2022/05/09 00:02:33;;;;;;;;;;;17.60;66.00;;;;;;5073311;28;19925;-82
2022/05/09 00:05:00;;;;;;;;;;;17.60;66.10;;;;;;5052749;28;19924;-80
2022/05/09 00:07:29;;;;;;;;;;;17.60;66.10;;;;;;5059557;28;19929;-78
2022/05/09 00:09:56;;;;;;;;;;;17.60;66.00;;;;;;5060752;28;19967;-80
2022/05/09 00:12:23;;;;;;;;;;;17.60;66.10;;;;;;5037432;28;20393;-81
2022/05/09 00:14:49;;;;;;;;;;;17.60;66.10;;;;;;5058533;28;19948;-79
2022/05/09 00:17:16;;;;;;;;;;;17.60;66.20;;;;;;5053619;28;19925;-79
2022/05/09 00:19:44;;;;;;;;;;;17.60;66.10;;;;;;5059413;28;19932;-79
2022/05/09 00:22:11;;;;;;;;;;;17.60;66.20;;;;;;5057656;28;20393;-79
2022/05/09 00:24:37;;;;;;;;;;;17.60;66.20;;;;;;5059389;28;19931;-79
2022/05/09 00:27:05;;;;;;;;;;;17.60;66.10;;;;;;5040396;28;19935;-79
2022/05/09 00:29:31;;;;;;;;;;;17.60;66.20;;;;;;5059431;28;20047;-79
2022/05/09 00:31:58;;;;;;;;;;;17.60;66.20;;;;;;5056050;28;19933;-77
2022/05/09 00:34:28;;;;;;;;;;;17.70;66.40;;;;;;5057788;28;20321;-77
2022/05/09 00:36:57;;;;;;;;;;;17.60;66.10;;;;;;5056988;28;19924;-80
2022/05/09 00:39:24;;;;;;;;;;;17.60;66.10;;;;;;5057854;28;19931;-78
2022/05/09 00:41:51;;;;;;;;;;;17.60;66.30;;;;;;5059831;28;19939;-80
2022/05/09 00:44:21;;;;;;;;;;;17.60;66.80;;;;;;5058914;28;19928;-78
2022/05/09 00:46:49;;;;;;;;;;;17.60;66.40;;;;;;5055868;28;19925;-79
2022/05/09 00:49:18;;;;;;;;;;;17.60;66.30;;;;;;5056850;28;19933;-79
2022/05/09 00:51:47;;;;;;;;;;;17.60;66.30;;;;;;5056506;28;20371;-78
2022/05/09 00:54:16;;;;;;;;;;;17.50;66.20;;;;;;5040057;28;19971;-79
2022/05/09 00:56:44;;;;;;;;;;;17.60;66.20;;;;;;5051886;28;19955;-77
2022/05/09 00:59:14;;;;;;;;;;;17.60;66.20;;;;;;5057028;28;20077;-79
2022/05/09 01:01:42;;;;;;;;;;;17.50;66.20;;;;;;5041471;28;19931;-78
2022/05/09 01:04:11;;;;;;;;;;;17.60;66.40;;;;;;5044272;28;19928;-77
2022/05/09 01:06:38;;;;;;;;;;;17.50;66.20;;;;;;5059771;28;20247;-81
2022/05/09 01:09:04;;;;;;;;;;;17.50;66.30;;;;;;5062184;28;21865;-79
2022/05/09 01:11:33;;;;;;;;;;;17.50;66.30;;;;;;5058710;28;19924;-80
2022/05/09 01:14:03;;;;;;;;;;;17.50;66.30;;;;;;5061777;28;20013;-77
2022/05/09 01:16:30;;;;;;;;;;;17.50;66.30;;;;;;5042979;28;19932;-80
2022/05/09 01:18:58;;;;;;;;;;;17.50;66.30;;;;;;5060800;28;19924;-78
2022/05/09 01:21:30;;;;;;;;;;;17.50;66.30;;;;;;5067771;28;20054;-78
2022/05/09 01:23:57;;;;;;;;;;;17.50;66.20;;;;;;5047262;28;20019;-81
2022/05/09 01:26:24;;;;;;;;;;;17.50;66.20;;;;;;5063193;28;19993;-79
2022/05/09 01:28:50;;;;;;;;;;;17.50;66.40;;;;;;5066675;28;20003;-78
2022/05/09 01:31:18;;;;;;;;;;;17.50;66.40;;;;;;5058386;28;19925;-77
2022/05/09 01:33:47;;;;;;;;;;;17.50;66.40;;;;;;5060193;28;19925;-78
2022/05/09 01:36:15;;;;;;;;;;;17.50;66.40;;;;;;5060024;28;19924;-77
2022/05/09 01:38:46;;;;;;;;;;;17.50;66.40;;;;;;5059746;28;19933;-79
2022/05/09 01:41:13;;;;;;;;;;;17.50;66.40;;;;;;5037067;28;19959;-79
2022/05/09 01:43:40;;;;;;;;;;;17.50;66.20;;;;;;5059142;28;19928;-78
2022/05/09 01:46:08;;;;;;;;;;;17.50;66.40;;;;;;5040946;28;20024;-79
2022/05/09 01:51:19;;;;;;;;;;;17.50;66.40;;;;;;5049093;28;19928;-77
2022/05/09 01:53:50;;;;;;;;;;;17.40;66.30;;;;;;5061740;28;19943;-79
2022/05/09 01:56:18;;;;;;;;;;;17.50;66.50;;;;;;5052802;28;20261;-77
2022/05/09 01:58:45;;;;;;;;;;;17.50;66.50;;;;;;5058007;28;19932;-77
2022/05/09 02:01:11;;;;;;;;;;;17.50;66.50;;;;;;5042705;28;19931;-78
2022/05/09 02:03:38;;;;;;;;;;;17.50;66.50;;;;;;5065687;28;19924;-79
2022/05/09 02:06:07;;;;;;;;;;;17.50;66.50;;;;;;5054805;28;19928;-78
2022/05/09 02:08:36;;;;;;;;;;;17.50;66.60;;;;;;5063334;28;19982;-78
2022/05/09 02:11:04;;;;;;;;;;;17.50;66.50;;;;;;5059455;28;20011;-78
2022/05/09 02:13:31;;;;;;;;;;;17.50;66.60;;;;;;5069072;28;20098;-77
2022/05/09 02:15:57;;;;;;;;;;;17.50;66.60;;;;;;5061178;28;20389;-77
2022/05/09 02:18:24;;;;;;;;;;;17.50;66.50;;;;;;5055810;28;19924;-77
2022/05/09 02:21:02;;;;;;;;;;;17.50;66.50;;;;;;5041145;28;20001;-80
2022/05/09 02:23:29;;;;;;;;;;;17.40;66.50;;;;;;5043838;28;19951;-80
2022/05/09 02:25:56;;;;;;;;;;;17.40;66.50;;;;;;5057305;28;19931;-81
2022/05/09 02:28:24;;;;;;;;;;;17.50;66.60;;;;;;5065318;28;20010;-82
2022/05/09 02:30:50;;;;;;;;;;;17.50;66.50;;;;;;5059603;28;20031;-79
2022/05/09 02:33:17;;;;;;;;;;;17.40;66.50;;;;;;5068613;28;20410;-78
2022/05/09 02:35:44;;;;;;;;;;;17.40;66.50;;;;;;5060417;28;20012;-78
2022/05/09 02:38:11;;;;;;;;;;;17.40;66.50;;;;;;5064611;28;19928;-80
2022/05/09 02:40:38;;;;;;;;;;;17.40;66.50;;;;;;5073199;28;19913;-79
2022/05/09 02:43:06;;;;;;;;;;;17.50;66.60;;;;;;5089163;28;19932;-79
2022/05/09 02:45:34;;;;;;;;;;;17.40;66.50;;;;;;5059683;28;19931;-79
2022/05/09 02:48:01;;;;;;;;;;;17.40;66.50;;;;;;5044489;28;20303;-82
2022/05/09 02:50:29;;;;;;;;;;;17.40;66.50;;;;;;5064102;28;19924;-78
2022/05/09 02:52:56;;;;;;;;;;;17.40;66.50;;;;;;5043083;28;20318;-79
2022/05/09 02:55:23;;;;;;;;;;;17.40;66.50;;;;;;5060961;28;19925;-77
2022/05/09 02:57:50;;;;;;;;;;;17.40;66.40;;;;;;5055688;28;19925;-80
2022/05/09 03:00:19;;;;;;;;;;;17.40;66.50;;;;;;5059992;28;19929;-78
2022/05/09 03:04:38;;;;;;;;;;;17.40;66.60;;;;;;5068190;28;19928;-80
2022/05/09 03:05:34;;;;;;;;;;;17.40;66.50;;;;;;5061372;28;19929;-78
2022/05/09 03:08:01;;;;;;;;;;;17.40;66.60;;;;;;5063266;28;20436;-80
2022/05/09 03:10:31;;;;;;;;;;;17.40;66.50;;;;;;5054783;28;19928;-79
2022/05/09 03:12:59;;;;;;;;;;;17.40;66.60;;;;;;5055359;28;19924;-79
2022/05/09 03:15:26;;;;;;;;;;;17.40;66.60;;;;;;5060194;28;19925;-79
2022/05/09 03:17:54;;;;;;;;;;;17.40;66.50;;;;;;5042953;28;20359;-79
2022/05/09 03:20:21;;;;;;;;;;;17.40;66.50;;;;;;5072610;28;20015;-78
2022/05/09 03:22:49;;;;;;;;;;;17.40;66.50;;;;;;5065241;28;19999;-78
2022/05/09 03:25:15;;;;;;;;;;;17.40;66.40;;;;;;5061205;28;19959;-78
2022/05/09 03:27:42;;;;;;;;;;;17.40;66.50;;;;;;5061008;28;19936;-79
2022/05/09 03:30:09;;;;;;;;;;;17.50;66.60;;;;;;5058722;28;19929;-79
2022/05/09 03:32:36;;;;;;;;;;;17.40;66.50;;;;;;5057364;28;19924;-79
2022/05/09 03:35:04;;;;;;;;;;;17.40;66.50;;;;;;5055895;28;19987;-79
2022/05/09 03:37:31;;;;;;;;;;;17.40;66.50;;;;;;5056687;28;19931;-79
2022/05/09 03:39:58;;;;;;;;;;;17.40;66.50;;;;;;5061606;28;19924;-78
2022/05/09 03:42:25;;;;;;;;;;;17.40;66.60;;;;;;5056877;28;20393;-79
2022/05/09 03:44:51;;;;;;;;;;;17.40;66.50;;;;;;5056126;28;20031;-77
2022/05/09 03:47:18;;;;;;;;;;;17.40;66.50;;;;;;5057835;28;19929;-79
2022/05/09 03:49:44;;;;;;;;;;;17.40;66.50;;;;;;5059122;28;19924;-80
2022/05/09 03:52:13;;;;;;;;;;;17.40;66.50;;;;;;5060082;28;19951;-80
2022/05/09 03:54:40;;;;;;;;;;;17.40;66.50;;;;;;5058094;28;20589;-78
2022/05/09 03:57:07;;;;;;;;;;;17.40;66.50;;;;;;5058246;28;19928;-78
2022/05/09 03:59:33;;;;;;;;;;;17.40;66.60;;;;;;5059128;28;19924;-78
2022/05/09 04:02:00;;;;;;;;;;;17.40;66.40;;;;;;5059733;28;19925;-80
2022/05/09 04:04:27;;;;;;;;;;;17.40;66.60;;;;;;5067785;28;19924;-80
2022/05/09 04:06:54;;;;;;;;;;;17.40;66.60;;;;;;5057881;28;19928;-80
2022/05/09 04:09:22;;;;;;;;;;;17.40;66.50;;;;;;5075621;28;19924;-79
2022/05/09 04:11:50;;;;;;;;;;;17.40;66.60;;;;;;5033109;28;19983;-79
2022/05/09 04:16:49;;;;;;;;;;;17.30;66.50;;;;;;5046836;28;19924;-79
2022/05/09 04:17:03;;;;;;;;;;;17.30;66.40;;;;;;5046977;28;20032;-78
2022/05/09 04:19:30;;;;;;;;;;;17.30;66.40;;;;;;5048169;28;19925;-79
2022/05/09 04:21:57;;;;;;;;;;;17.30;66.40;;;;;;5054558;28;19931;-79
2022/05/09 04:24:25;;;;;;;;;;;17.30;67.20;;;;;;5057791;28;19931;-77
2022/05/09 04:26:52;;;;;;;;;;;17.30;66.50;;;;;;5054408;28;19939;-79
2022/05/09 04:29:18;;;;;;;;;;;17.30;66.60;;;;;;5037341;28;20718;-78
2022/05/09 04:31:45;;;;;;;;;;;17.30;66.40;;;;;;5046846;28;19979;-78
2022/05/09 04:34:16;;;;;;;;;;;17.30;66.30;;;;;;5055067;28;19935;-78
2022/05/09 04:36:43;;;;;;;;;;;17.30;66.50;;;;;;5052027;28;19930;-78
2022/05/09 04:39:10;;;;;;;;;;;17.30;66.30;;;;;;5054108;28;19931;-76
2022/05/09 04:41:38;;;;;;;;;;;17.30;66.30;;;;;;5051597;28;19925;-79
2022/05/09 04:44:05;;;;;;;;;;;17.30;66.40;;;;;;5050803;28;19924;-76
2022/05/09 04:46:32;;;;;;;;;;;17.30;66.30;;;;;;5059678;28;19946;-78
2022/05/09 04:48:59;;;;;;;;;;;17.30;66.30;;;;;;5059908;28;20027;-81
2022/05/09 04:51:25;;;;;;;;;;;17.30;66.40;;;;;;5061365;28;19928;-77
2022/05/09 04:53:53;;;;;;;;;;;17.30;66.40;;;;;;5047620;28;19993;-77
2022/05/09 04:56:20;;;;;;;;;;;17.30;66.30;;;;;;5063882;28;20057;-77
2022/05/09 04:58:53;;;;;;;;;;;17.40;66.50;;;;;;5031180;28;20015;-77
2022/05/09 05:01:20;;;;;;;;;;;17.30;66.30;;;;;;5053113;28;19924;-78
2022/05/09 05:03:47;;;;;;;;;;;17.30;66.30;;;;;;5059945;28;19970;-77
2022/05/09 05:06:15;;;;;;;;;;;17.30;66.30;;;;;;5055885;28;20027;-78
2022/05/09 05:08:42;;;;;;;;;;;17.30;66.30;;;;;;5057891;28;20389;-78
2022/05/09 05:11:09;;;;;;;;;;;17.30;66.30;;;;;;5062123;28;19931;-77
2022/05/09 05:13:36;;;;;;;;;;;17.30;66.30;;;;;;5054762;28;19935;-78
2022/05/09 05:16:04;;;;;;;;;;;17.30;66.30;;;;;;5038195;28;19928;-78
2022/05/09 05:18:32;;;;;;;;;;;17.30;65.60;;;;;;5056050;28;19932;-77
2022/05/09 05:21:07;;;;;;;;;;;17.30;65.50;;;;;;5068943;28;19932;-79
2022/05/09 05:23:34;;;;;;;;;;;17.30;65.50;;;;;;5080542;28;19912;-78
2022/05/09 05:26:01;;;;;;;;;;;17.30;65.60;;;;;;5063693;28;19931;-81
2022/05/09 05:28:30;;;;;;;;;;;17.20;65.60;;;;;;5064338;28;20382;-78
2022/05/09 05:30:56;;;;;;;;;;;17.20;65.30;;;;;;5064688;28;19935;-77
2022/05/09 05:33:24;;;;;;;;;;;17.20;65.30;;;;;;5064835;28;19924;-79
2022/05/09 05:35:52;;;;;;;;;;;17.20;65.40;;;;;;5068794;28;20472;-77
2022/05/09 05:38:19;;;;;;;;;;;17.20;65.30;;;;;;5068480;28;19924;-78
2022/05/09 05:40:45;;;;;;;;;;;17.20;65.30;;;;;;5058922;28;19924;-78
2022/05/09 05:43:14;;;;;;;;;;;17.30;65.40;;;;;;5059216;28;19924;-76
2022/05/09 05:45:41;;;;;;;;;;;17.30;65.40;;;;;;5050565;28;19983;-76
2022/05/09 05:48:10;;;;;;;;;;;17.20;65.30;;;;;;5054323;28;20023;-77
2022/05/09 05:50:38;;;;;;;;;;;17.30;65.30;;;;;;5067063;28;19931;-77
2022/05/09 05:53:05;;;;;;;;;;;17.30;65.30;;;;;;5030818;28;19928;-76
2022/05/09 05:55:32;;;;;;;;;;;17.30;65.20;;;;;;5051523;28;19931;-76
2022/05/09 05:57:58;;;;;;;;;;;17.30;65.30;;;;;;5056449;28;19935;-76
2022/05/09 06:00:25;;;;;;;;;;;17.30;65.40;;;;;;5047981;28;19932;-75
2022/05/09 06:02:52;;;;;;;;;;;17.40;65.50;;;;;;5064803;28;19937;-76
2022/05/09 06:05:19;;;;;;;;;;;17.30;65.40;;;;;;5064317;28;19924;-76
2022/05/09 06:07:48;;;;;;;;;;;17.30;65.30;;;;;;5059366;28;19933;-77
2022/05/09 06:10:16;;;;;;;;;;;17.30;65.40;;;;;;5042139;28;19929;-77
2022/05/09 06:12:43;;;;;;;;;;;17.40;65.50;;;;;;5057397;28;19944;-79
2022/05/09 06:17:54;;;;;;;;;;;17.30;65.40;;;;;;5047331;28;19925;-76
2022/05/09 06:20:31;;;;;;;;;;;17.30;65.30;;;;;;5054418;28;20598;-78
2022/05/09 06:22:59;;;;;;;;;;;17.30;65.40;;;;;;5059609;28;19952;-76
2022/05/09 06:25:27;;;;;;;;;;;17.30;65.40;;;;;;5055088;28;19951;-75
2022/05/09 06:27:54;;;;;;;;;;;17.30;65.40;;;;;;5058748;28;19925;-79
2022/05/09 06:30:22;;;;;;;;;;;17.30;65.40;;;;;;5050945;28;19924;-76
2022/05/09 06:32:50;;;;;;;;;;;17.30;65.40;;;;;;5056692;28;19925;-76
2022/05/09 06:35:20;;;;;;;;;;;17.30;65.40;;;;;;5054408;28;20423;-77
2022/05/09 06:37:47;;;;;;;;;;;17.30;65.40;;;;;;5029921;28;20012;-78
2022/05/09 06:40:15;;;;;;;;;;;17.40;65.60;;;;;;5014858;28;19939;-77
2022/05/09 06:42:42;;;;;;;;;;;17.30;65.50;;;;;;5023101;28;19932;-76
2022/05/09 06:45:09;;;;;;;;;;;17.40;65.60;;;;;;5016297;28;20316;-76
2022/05/09 06:47:43;;;;;;;;;;;17.40;65.60;;;;;;5020021;28;19952;-75
2022/05/09 06:50:10;;;;;;;;;;;17.40;65.60;;;;;;5020357;28;20414;-77
2022/05/09 06:52:37;;;;;;;;;;;17.40;65.60;;;;;;4995843;28;19925;-77
2022/05/09 06:55:05;;;;;;;;;;;17.40;65.50;;;;;;5021831;28;19929;-76
2022/05/09 06:57:36;;;;;;;;;;;17.40;65.50;;;;;;5011582;28;19980;-77
2022/05/09 07:00:04;;;;;;;;;;;17.40;65.60;;;;;;5016288;28;19933;-76
2022/05/09 07:02:31;;;;;;;;;;;17.40;65.50;;;;;;5014294;28;19926;-76
2022/05/09 07:04:57;;;;;;;;;;;17.40;65.50;;;;;;5022140;28;19925;-75
2022/05/09 07:07:24;;;;;;;;;;;17.40;65.60;;;;;;5024385;28;19991;-76
2022/05/09 07:09:51;;;;;;;;;;;17.40;65.50;;;;;;5018971;28;19926;-76
2022/05/09 07:12:17;;;;;;;;;;;17.40;65.50;;;;;;5019422;28;20394;-76
2022/05/09 07:14:45;;;;;;;;;;;17.40;65.50;;;;;;5023357;28;19932;-75
2022/05/09 07:17:12;;;;;;;;;;;17.40;65.50;;;;;;5020871;28;19925;-76
2022/05/09 07:19:39;;;;;;;;;;;17.40;65.50;;;;;;5018150;28;19979;-76
2022/05/09 07:22:05;;;;;;;;;;;17.40;65.50;;;;;;5007611;28;19976;-75
2022/05/09 07:24:32;;;;;;;;;;;17.40;65.50;;;;;;5029470;28;19924;-77
2022/05/09 07:26:59;;;;;;;;;;;17.40;65.50;;;;;;5027804;28;20373;-75
2022/05/09 07:29:26;;;;;;;;;;;17.40;65.50;;;;;;5026610;28;19932;-79
2022/05/09 07:31:54;;;;;;;;;;;17.50;65.70;;;;;;5010389;28;19925;-75
2022/05/09 07:34:20;;;;;;;;;;;17.50;65.70;;;;;;5013283;28;20029;-77
2022/05/09 07:36:47;;;;;;;;;;;17.50;65.70;;;;;;5035157;28;20011;-75
2022/05/09 07:39:14;;;;;;;;;;;17.50;65.70;;;;;;5074449;28;20577;-77
2022/05/09 07:41:42;;;;;;;;;;;17.50;65.80;;;;;;5060526;28;20015;-75
2022/05/09 07:44:08;;;;;;;;;;;17.50;65.80;;;;;;5059689;28;19929;-75
2022/05/09 07:46:36;;;;;;;;;;;17.50;65.90;;;;;;5063212;28;19960;-76
2022/05/09 07:49:04;;;;;;;;;;;17.50;65.80;;;;;;5067170;28;19963;-75
2022/05/09 07:51:31;;;;;;;;;;;17.50;65.90;;;;;;5064300;28;19930;-75
2022/05/09 07:53:58;;;;;;;;;;;17.50;65.90;;;;;;5046595;28;19928;-78
2022/05/09 07:56:24;;;;;;;;;;;17.50;65.90;;;;;;5060200;28;20464;-75
2022/05/09 07:58:51;;;;;;;;;;;17.50;65.90;;;;;;5059782;28;19939;-75
2022/05/09 08:01:17;;;;;;;;;;;17.60;66.10;;;;;;5061353;28;19928;-76
2022/05/09 08:03:44;;;;;;;;;;;17.60;66.10;;;;;;5079156;28;19925;-76
2022/05/09 08:06:13;;;;;;;;;;;17.60;66.00;;;;;;5067529;28;19925;-75
2022/05/09 08:08:42;;;;;;;;;;;17.60;66.00;;;;;;5070958;28;19932;-76
2022/05/09 08:11:11;;;;;;;;;;;17.60;66.00;;;;;;5039588;28;19998;-75
2022/05/09 08:13:38;;;;;;;;;;;17.60;66.00;;;;;;5057826;28;19939;-78
2022/05/09 08:16:05;;;;;;;;;;;17.60;66.10;;;;;;5041465;28;19924;-76
2022/05/09 08:18:33;;;;;;;;;;;17.60;66.10;;;;;;5062867;28;19931;-78
2022/05/09 08:21:00;;;;;;;;;;;17.70;66.20;;;;;;5069519;28;20284;-77
2022/05/09 08:23:28;;;;;;;;;;;17.60;66.10;;;;;;5052538;28;19932;-76
2022/05/09 08:25:56;;;;;;;;;;;17.60;66.10;;;;;;5064600;28;19970;-77
2022/05/09 08:28:23;;;;;;;;;;;17.70;66.30;;;;;;5058422;28;19963;-76
2022/05/09 08:30:52;;;;;;;;;;;17.70;66.30;;;;;;5067645;28;19977;-75
2022/05/09 08:33:20;;;;;;;;;;;17.70;66.30;;;;;;5053699;28;19928;-76
2022/05/09 08:35:47;;;;;;;;;;;17.70;66.30;;;;;;5062865;28;19925;-78
2022/05/09 08:38:14;;;;;;;;;;;17.70;66.40;;;;;;5058094;28;19935;-77
2022/05/09 08:40:46;;;;;;;;;;;17.70;66.40;;;;;;5049042;28;20368;-78
2022/05/09 08:43:19;;;;;;;;;;;17.70;66.40;;;;;;5051823;28;21531;-77
2022/05/09 08:45:48;;;;;;;;;;;17.70;66.40;;;;;;5051117;28;20012;-76
2022/05/09 08:48:22;;;;;;;;;;;17.80;66.50;;;;;;5051335;28;19924;-76
2022/05/09 08:51:06;;;;;;;;;;;17.80;66.60;;;;;;5057505;28;19928;-78
2022/05/09 08:53:36;;;;;;;;;;;17.80;66.50;;;;;;5059158;28;19924;-76
2022/05/09 08:56:04;;;;;;;;;;;17.80;66.50;;;;;;5058185;28;19928;-78
2022/05/09 08:58:39;;;;;;;;;;;17.80;66.50;;;;;;5058894;28;19947;-79
2022/05/09 09:01:12;;;;;;;;;;;17.80;66.70;;;;;;5040469;28;19929;-76
2022/05/09 09:03:43;;;;;;;;;;;17.80;66.50;;;;;;5060451;28;19928;-77
2022/05/09 09:06:18;;;;;;;;;;;17.80;66.70;;;;;;5056801;28;19932;-78
2022/05/09 09:08:52;;;;;;;;;;;17.80;66.80;;;;;;5037897;28;20318;-78
2022/05/09 09:11:36;;;;;;;;;;;17.90;66.80;;;;;;5056793;28;19970;-78
2022/05/09 09:14:06;;;;;;;;;;;17.90;66.90;;;;;;5056396;28;20027;-76
2022/05/09 09:16:40;;;;;;;;;;;17.90;66.90;;;;;;5058284;28;19931;-76
2022/05/09 09:19:15;;;;;;;;;;;17.90;66.90;;;;;;5050015;28;19928;-78
2022/05/09 09:21:44;;;;;;;;;;;17.90;66.90;;;;;;5031199;28;19986;-78
2022/05/09 09:24:22;;;;;;;;;;;17.90;66.90;;;;;;5058491;28;19937;-77
2022/05/09 09:26:56;;;;;;;;;;;17.90;66.90;;;;;;5056454;28;19928;-77
2022/05/09 09:29:26;;;;;;;;;;;17.90;66.90;;;;;;5051986;28;20016;-78
2022/05/09 09:31:56;;;;;;;;;;;18.00;67.30;;;;;;5052001;28;20033;-77
2022/05/09 09:34:26;;;;;;;;;;;18.00;67.60;;;;;;5060226;28;20298;-78
2022/05/09 09:36:55;;;;;;;;;;;18.00;67.40;;;;;;5061603;28;19932;-76
2022/05/09 09:39:26;;;;;;;;;;;18.10;67.40;;;;;;5037326;28;19950;-76
2022/05/09 09:41:56;;;;;;;;;;;18.10;67.20;;;;;;5058873;28;19955;-76
2022/05/09 09:44:23;;;;;;;;;;;18.10;67.30;;;;;;5060674;28;19932;-75
2022/05/09 09:47:01;;;;;;;;;;;18.10;67.40;;;;;;5058184;28;19971;-76
2022/05/09 09:49:29;;;;;;;;;;;18.10;67.20;;;;;;5060302;28;19931;-78
2022/05/09 09:52:19;;;;;;;;;;;18.20;67.40;;;;;;5059833;28;20276;-79
2022/05/09 09:54:49;;;;;;;;;;;18.20;67.40;;;;;;5057122;28;20015;-79
2022/05/09 09:57:18;;;;;;;;;;;18.20;67.70;;;;;;5064206;28;19951;-78
2022/05/09 09:59:45;;;;;;;;;;;18.20;67.60;;;;;;5059727;28;19955;-76
2022/05/09 10:02:16;;;;;;;;;;;18.20;67.60;;;;;;5064002;28;19931;-78
2022/05/09 10:04:43;;;;;;;;;;;18.20;67.60;;;;;;5063341;28;20017;-77
2022/05/09 10:07:12;;;;;;;;;;;18.10;67.60;;;;;;5052284;28;20513;-76
2022/05/09 10:09:42;;;;;;;;;;;18.10;67.70;;;;;;5069518;28;19947;-78
2022/05/09 10:12:21;;;;;;;;;;;18.20;67.70;;;;;;5062901;28;19939;-79
2022/05/09 10:14:48;;;;;;;;;;;18.20;68.00;;;;;;5062418;28;19963;-78
2022/05/09 10:17:16;;;;;;;;;;;18.30;68.10;;;;;;5043920;28;20399;-77
2022/05/09 10:19:43;;;;;;;;;;;18.20;67.90;;;;;;5055881;28;19932;-78
2022/05/09 10:24:57;;;;;;;;;;;18.20;68.00;;;;;;5060392;28;19924;-79
2022/05/09 10:27:30;;;;;;;;;;;18.20;68.00;;;;;;5073732;28;20407;-79
2022/05/09 10:29:58;;;;;;;;;;;18.20;68.10;;;;;;5058408;28;19932;-78
2022/05/09 10:32:27;;;;;;;;;;;18.20;68.10;;;;;;5061812;28;19924;-78
2022/05/09 10:34:56;;;;;;;;;;;18.30;68.30;;;;;;5043371;28;19933;-77
2022/05/09 10:37:25;;;;;;;;;;;18.20;68.20;;;;;;5053071;28;19925;-78
2022/05/09 10:39:54;;;;;;;;;;;18.20;68.20;;;;;;5061980;28;19924;-77
2022/05/09 10:42:26;;;;;;;;;;;18.20;68.20;;;;;;5066105;28;19925;-78
2022/05/09 10:44:59;;;;;;;;;;;18.20;68.20;;;;;;5064807;28;20019;-77
2022/05/09 10:47:28;;;;;;;;;;;18.20;68.30;;;;;;5063501;28;20421;-77
2022/05/09 10:49:59;;;;;;;;;;;18.20;68.20;;;;;;5063858;28;19970;-79
2022/05/09 10:52:33;;;;;;;;;;;18.30;68.40;;;;;;5057195;28;19974;-77
2022/05/09 10:55:03;;;;;;;;;;;18.20;68.30;;;;;;5063570;28;19937;-79
2022/05/09 10:57:31;;;;;;;;;;;18.30;68.40;;;;;;5042264;28;19998;-79
2022/05/09 11:00:03;;;;;;;;;;;18.20;68.30;;;;;;5071712;28;19944;-79
2022/05/09 11:02:31;;;;;;;;;;;18.20;68.40;;;;;;5058726;28;20445;-77
2022/05/09 11:04:58;;;;;;;;;;;18.20;68.30;;;;;;5053998;28;19935;-78
2022/05/09 11:07:30;;;;;;;;;;;18.30;68.40;;;;;;5068880;28;19924;-77
2022/05/09 11:10:02;;;;;;;;;;;18.30;68.40;;;;;;5070829;28;19924;-78
2022/05/09 11:12:44;;;;;;;;;;;18.30;68.40;;;;;;5058189;28;19931;-78
2022/05/09 11:15:18;;;;;;;;;;;18.30;68.40;;;;;;5047122;28;19978;-78
2022/05/09 11:18:26;;;;;;;;;;;18.30;68.40;;;;;;5061374;28;20014;-78
2022/05/09 11:20:55;;;;;;;;;;;18.30;68.50;;;;;;5058404;28;19978;-78
2022/05/09 11:23:26;;;;;;;;;;;18.30;68.40;;;;;;5060227;28;19925;-78
2022/05/09 11:25:59;;;;;;;;;;;18.30;68.50;;;;;;5059527;28;19924;-80
2022/05/09 11:28:36;;;;;;;;;;;18.30;68.50;;;;;;5060338;28;20375;-77
2022/05/09 11:31:09;;;;;;;;;;;18.30;68.40;;;;;;5063071;28;20525;-79
2022/05/09 11:33:44;;;;;;;;;;;18.30;68.40;;;;;;5060429;28;19924;-79
2022/05/09 11:36:20;;;;;;;;;;;18.30;68.40;;;;;;5056693;28;20020;-77
2022/05/09 11:39:00;;;;;;;;;;;18.30;68.50;;;;;;5063084;28;20003;-79
2022/05/09 11:41:31;;;;;;;;;;;18.30;68.40;;;;;;5051800;28;20029;-80
2022/05/09 11:44:10;;;;;;;;;;;18.30;68.40;;;;;;5059731;28;20045;-80
2022/05/09 11:46:43;;;;;;;;;;;18.30;68.40;;;;;;5040203;28;19978;-78
2022/05/09 11:49:25;;;;;;;;;;;18.40;68.50;;;;;;5042038;28;19932;-77
2022/05/09 11:51:52;;;;;;;;;;;18.30;68.40;;;;;;5040467;28;19928;-77
2022/05/09 11:54:23;;;;;;;;;;;18.30;68.40;;;;;;5060078;28;19956;-80
2022/05/09 11:56:51;;;;;;;;;;;18.30;68.40;;;;;;5059420;28;19928;-79
2022/05/09 11:59:21;;;;;;;;;;;18.30;68.40;;;;;;5054361;28;20269;-79
2022/05/09 12:01:56;;;;;;;;;;;18.30;68.40;;;;;;5054879;28;20313;-78
2022/05/09 12:04:32;;;;;;;;;;;18.30;68.30;;;;;;5029474;28;19931;-77
2022/05/09 12:07:21;;;;;;;;;;;18.40;68.50;;;;;;5059398;28;19986;-78
2022/05/09 12:09:54;;;;;;;;;;;18.40;68.40;;;;;;5051509;28;20023;-77
2022/05/09 12:12:43;;;;;;;;;;;18.40;68.50;;;;;;5055621;28;19968;-80
2022/05/09 12:15:12;;;;;;;;;;;18.40;68.50;;;;;;5057866;28;20020;-78
2022/05/09 12:17:43;;;;;;;;;;;18.40;68.50;;;;;;5042901;28;19925;-78
2022/05/09 12:20:12;;;;;;;;;;;18.40;68.50;;;;;;5063517;28;19951;-79
2022/05/09 12:22:40;;;;;;;;;;;18.40;68.50;;;;;;5067027;28;20038;-75
2022/05/09 12:25:09;;;;;;;;;;;18.40;68.50;;;;;;5065646;28;19928;-76
2022/05/09 12:27:40;;;;;;;;;;;18.40;68.50;;;;;;5066552;28;19925;-78
2022/05/09 12:30:11;;;;;;;;;;;18.40;68.50;;;;;;5059181;28;20395;-77
2022/05/09 12:32:38;;;;;;;;;;;18.40;68.50;;;;;;5058868;28;19935;-79
2022/05/09 12:35:08;;;;;;;;;;;18.40;68.50;;;;;;5041437;28;19974;-79
2022/05/09 12:37:44;;;;;;;;;;;18.40;68.40;;;;;;5031794;28;20422;-79
2022/05/09 12:40:19;;;;;;;;;;;18.40;68.40;;;;;;5059863;28;19931;-77
2022/05/09 12:42:48;;;;;;;;;;;18.40;68.40;;;;;;5057575;28;19979;-78
2022/05/09 12:45:15;;;;;;;;;;;18.40;68.40;;;;;;5051101;28;20023;-78
2022/05/09 12:47:43;;;;;;;;;;;18.40;68.50;;;;;;5055923;28;20012;-80
2022/05/09 12:50:13;;;;;;;;;;;18.50;68.50;;;;;;5046291;28;19929;-77
2022/05/09 12:52:41;;;;;;;;;;;18.40;68.40;;;;;;5035858;28;19925;-78
2022/05/09 12:57:53;;;;;;;;;;;18.50;68.80;;;;;;5050415;28;19939;-80
2022/05/09 13:00:23;;;;;;;;;;;18.50;69.00;;;;;;5061023;28;20313;-79
2022/05/09 13:02:49;;;;;;;;;;;18.50;69.00;;;;;;5054386;28;19951;-79
2022/05/09 13:05:18;;;;;;;;;;;18.50;69.00;;;;;;5064283;28;19928;-77
2022/05/09 13:07:55;;;;;;;;;;;18.50;69.10;;;;;;5056942;28;19925;-79
2022/05/09 13:10:22;;;;;;;;;;;18.50;69.20;;;;;;5063850;28;19924;-78
2022/05/09 13:12:48;;;;;;;;;;;18.50;69.20;;;;;;5049191;28;19954;-80
2022/05/09 13:15:18;;;;;;;;;;;18.50;69.30;;;;;;5062594;28;20019;-77
2022/05/09 13:17:45;;;;;;;;;;;18.50;69.60;;;;;;5062144;28;19925;-77
2022/05/09 13:20:14;;;;;;;;;;;18.50;69.60;;;;;;5066551;28;19947;-79
2022/05/09 13:22:46;;;;;;;;;;;18.50;69.50;;;;;;5059613;28;19924;-79
2022/05/09 13:25:17;;;;;;;;;;;18.50;69.50;;;;;;5064242;28;20238;-78
2022/05/09 13:27:45;;;;;;;;;;;18.60;69.60;;;;;;5065276;28;19935;-78
2022/05/09 13:30:12;;;;;;;;;;;18.50;69.60;;;;;;5063205;28;19987;-77
2022/05/09 13:32:40;;;;;;;;;;;18.50;69.60;;;;;;5061795;28;19928;-79
2022/05/09 13:35:15;;;;;;;;;;;18.50;69.70;;;;;;5060864;28;19933;-79
2022/05/09 13:37:43;;;;;;;;;;;18.50;69.70;;;;;;5059499;28;20019;-79
2022/05/09 13:40:12;;;;;;;;;;;18.50;69.70;;;;;;5060051;28;19928;-78
2022/05/09 13:42:40;;;;;;;;;;;18.50;69.80;;;;;;5066073;28;19924;-79
2022/05/09 13:45:11;;;;;;;;;;;18.50;69.80;;;;;;5067062;28;19948;-79
2022/05/09 13:47:41;;;;;;;;;;;18.50;69.90;;;;;;5061902;28;19990;-76
2022/05/09 13:50:08;;;;;;;;;;;18.50;70.00;;;;;;5063922;28;20439;-79
2022/05/09 13:52:36;;;;;;;;;;;18.50;69.80;;;;;;5044459;28;19978;-78
2022/05/09 13:55:04;;;;;;;;;;;18.50;69.80;;;;;;5063350;28;19928;-77
2022/05/09 13:57:35;;;;;;;;;;;18.50;69.90;;;;;;5059568;28;19928;-76
2022/05/09 14:00:06;;;;;;;;;;;18.40;69.90;;;;;;5063048;28;19928;-79
2022/05/09 14:02:34;;;;;;;;;;;18.50;70.00;;;;;;5062190;28;19931;-77
2022/05/09 14:05:04;;;;;;;;;;;18.50;70.00;;;;;;5060433;28;19925;-77
2022/05/09 14:07:46;;;;;;;;;;;18.50;70.00;;;;;;5059813;28;20023;-77
2022/05/09 14:10:18;;;;;;;;;;;18.50;70.10;;;;;;5058172;28;19929;-77
2022/05/09 14:12:46;;;;;;;;;;;18.50;70.10;;;;;;5059496;28;19925;-78
2022/05/09 14:15:14;;;;;;;;;;;18.50;70.10;;;;;;5068347;28;19998;-78
2022/05/09 14:17:43;;;;;;;;;;;18.50;70.30;;;;;;5063530;28;20327;-79
2022/05/09 14:20:11;;;;;;;;;;;18.50;70.10;;;;;;5061326;28;19928;-77
2022/05/09 14:22:39;;;;;;;;;;;18.60;70.40;;;;;;5060641;28;19976;-77
2022/05/09 14:30:45;;;;;;;;;;;18.60;70.40;;;;;;5059230;28;19928;-77
2022/05/09 14:33:27;;;;;;;;;;;18.60;70.40;;;;;;5061979;28;19971;-79
2022/05/09 14:35:53;;;;;;;;;;;18.60;70.50;;;;;;5062291;28;19924;-78
2022/05/09 14:38:24;;;;;;;;;;;18.60;70.50;;;;;;5057526;28;19925;-76
2022/05/09 14:40:51;;;;;;;;;;;18.60;70.60;;;;;;5069439;28;19935;-78
2022/05/09 14:43:29;;;;;;;;;;;18.50;70.50;;;;;;5068030;28;20461;-78